Flight Track Log - Related Links

Times and Time Zones

All times are in EDT time to prevent confusion due to time zone crossing. See the XOJ578 flight status page for this flight to view local times or setup timezone preferences in your user account.


Time Position Orientation Groundspeed Altitude Reporting Facility
EDT Latitude Longitude Course Direction KTS MPH feet Rate Location/Type
Thu 04:34:39 PM 21.9833 -159.3167 90° East 130 150 1,100  Level Honolulu Center
Thu 04:35:40 PM 21.9833 -159.2667 90° East 210 242 4,000 3,074 Climbing Honolulu Center
Thu 04:36:40 PM 21.9833 -159.1833 90° East 280 322 7,300 3,300 Climbing Honolulu Center
Thu 04:37:40 PM 21.9833 -159.1000 90° East 290 334 10,600 2,628 Climbing Honolulu Center
Thu 04:38:41 PM 22.0167 -159.0000 70° East 340 391 12,600 2,231 Climbing Honolulu Center
Thu 04:39:41 PM 22.0333 -158.9000 80° East 370 426 15,100 2,479 Climbing Honolulu Center
Thu 04:40:42 PM 22.0667 -158.7833 73° East 370 426 17,600 2,331 Climbing Honolulu Center
Thu 04:41:42 PM 22.0833 -158.6667 81° East 380 437 19,800 2,050 Climbing Honolulu Center
Thu 04:42:42 PM 22.1167 -158.5500 73° East 400 460 21,700 1,785 Climbing Honolulu Center
Thu 04:43:43 PM 22.1333 -158.4667 78° East 410 472 23,400 1,587 Climbing Honolulu Center
Thu 04:44:43 PM 22.1667 -158.3333 75° East 430 495 24,900 1,450 Climbing Honolulu Center
Thu 04:45:43 PM 22.2000 -158.1833 76° East 450 518 26,300 1,388 Climbing Honolulu Center
Thu 04:46:44 PM 22.2333 -158.0500 75° East 460 529 27,700 1,388 Climbing Honolulu Center
Thu 04:47:44 PM 22.2667 -157.9167 75° East 470 541 29,100 1,289 Climbing Honolulu Center
Thu 04:48:45 PM 22.3000 -157.7667 76° East 470 541 30,300 1,240 Climbing Honolulu Center
Thu 04:49:45 PM 22.3333 -157.6333 75° East 480 552 31,600 1,150 Climbing Honolulu Center
Thu 04:50:45 PM 22.3833 -157.4833 70° East 490 564 32,600 1,240 Climbing Honolulu Center
Thu 04:51:46 PM 22.4333 -157.3500 68° East 500 575 34,100 1,388 Climbing Honolulu Center
Thu 04:52:46 PM 22.4833 -157.2167 68° East 490 564 35,400 1,339 Climbing Honolulu Center
Thu 04:53:47 PM 22.5333 -157.0667 70° East 490 564 36,800 1,240 Climbing Honolulu Center
Thu 04:54:47 PM 22.5833 -156.9333 68° East 490 564 37,900 1,000 Climbing Honolulu Center
Thu 04:55:47 PM 22.6167 -156.8000 75° East 490 564 38,800 942 Climbing Honolulu Center
Thu 04:56:48 PM 22.6667 -156.6667 68° East 490 564 39,800 843 Climbing Honolulu Center
Thu 04:57:48 PM 22.7167 -156.5167 70° East 490 564 40,500 750 Climbing Honolulu Center
Thu 04:58:48 PM 22.7667 -156.4000 65° Northeast 490 564 41,300 744 Climbing Honolulu Center
Thu 04:59:49 PM 22.8167 -156.2500 70° East 490 564 42,000 595 Climbing Honolulu Center
Thu 05:00:49 PM 22.8667 -156.1167 68° East 490 564 42,500 500 Climbing Honolulu Center
Thu 05:01:49 PM 22.9167 -155.9833 68° East 490 564 43,000 248 Climbing Honolulu Center
Thu 05:02:50 PM 22.9500 -155.8333 76° East 490 564 43,000  Level Honolulu Center
Thu 05:03:50 PM 23.0000 -155.7000 68° East 500 575 43,000  Level Honolulu Center
Thu 05:04:50 PM 23.0500 -155.5500 70° East 500 575 43,000  Level Honolulu Center
Thu 05:05:50 PM 23.1000 -155.4167 68° East 500 575 43,000  Level Honolulu Center
Thu 05:06:51 PM 23.1500 -155.2667 70° East 500 575 43,000  Level Honolulu Center
Thu 05:07:51 PM 23.2000 -155.1333 68° East 500 575 43,000  Level Honolulu Center
Thu 05:09:00 PM 23.2509 -154.9744 71° East  Level FlightAware Approximate
Thu 05:16:00 PM 23.5576 -154.0044 71° East  Level FlightAware Approximate
Thu 05:17:00 PM 23.6009 -153.8654 71° East  Level FlightAware Approximate
Thu 05:18:00 PM 23.6441 -153.7264 71° East  Level FlightAware Approximate
Thu 05:19:00 PM 23.6871 -153.5873 71° East  Level FlightAware Approximate
Thu 05:20:00 PM 23.7301 -153.4481 71° East  Level FlightAware Approximate
Thu 05:21:00 PM 23.7914 -153.3199 57° Northeast  Level FlightAware Approximate
Thu 05:21:23 PM 23.7833 -153.3667 57° Northeast 490 564 43,000  Level Oakland Oceanic (ODAPS)
Thu 05:22:00 PM 23.8651 -153.1969 57° Northeast  Level FlightAware Approximate
Thu 05:23:00 PM 23.9386 -153.0738 57° Northeast  Level FlightAware Approximate
Thu 05:24:00 PM 24.0121 -152.9505 57° Northeast  Level FlightAware Approximate
Thu 05:25:00 PM 24.0855 -152.8270 57° Northeast  Level FlightAware Approximate
Thu 05:26:00 PM 24.1585 -152.7033 57° Northeast  Level FlightAware Approximate
Thu 05:27:00 PM 24.3757 -152.3659 57° Northeast 490 564 43,000  Level FlightAware Transoceanic
Thu 05:28:00 PM 24.4493 -152.2401 57° Northeast 490 564 43,000  Level FlightAware Transoceanic
Thu 05:29:00 PM 24.5228 -152.1142 57° Northeast 490 564 43,000  Level FlightAware Transoceanic
Thu 05:30:00 PM 24.5962 -151.9881 57° Northeast 490 564 43,000  Level FlightAware Transoceanic
Thu 05:31:00 PM 24.6695 -151.8620 57° Northeast 490 564 43,000  Level FlightAware Transoceanic
Thu 05:32:00 PM 24.7426 -151.7356 58° Northeast 490 564 43,000  Level FlightAware Transoceanic
Thu 05:33:00 PM 24.8157 -151.6091 58° Northeast 490 564 43,000  Level FlightAware Transoceanic
Thu 05:34:00 PM 24.8887 -151.4825 58° Northeast 490 564 43,000  Level FlightAware Transoceanic
Thu 05:35:00 PM 24.9615 -151.3557 58° Northeast 490 564 43,000  Level FlightAware Transoceanic
Thu 05:36:00 PM 25.0343 -151.2287 58° Northeast 490 564 43,000  Level FlightAware Transoceanic
Thu 05:37:00 PM 25.1069 -151.1016 58° Northeast 490 564 43,000  Level FlightAware Transoceanic
Thu 05:38:00 PM 25.1794 -150.9744 58° Northeast 490 564 43,000  Level FlightAware Transoceanic
Thu 05:39:00 PM 25.2519 -150.8470 58° Northeast 490 564 43,000  Level FlightAware Transoceanic
Thu 05:40:00 PM 25.3242 -150.7195 58° Northeast 490 564 43,000  Level FlightAware Transoceanic
Thu 05:41:00 PM 25.3964 -150.5918 58° Northeast 490 564 43,000  Level FlightAware Transoceanic
Thu 05:42:00 PM 25.4685 -150.4639 58° Northeast 490 564 43,000  Level FlightAware Transoceanic
Thu 05:43:00 PM 25.5404 -150.3359 58° Northeast 490 564 43,000  Level FlightAware Transoceanic
Thu 05:44:00 PM 25.6123 -150.2077 58° Northeast 490 564 43,000  Level FlightAware Transoceanic
Thu 05:45:00 PM 25.6840 -150.0794 58° Northeast 490 564 43,000  Level FlightAware Transoceanic
Thu 05:46:00 PM 25.7557 -149.9510 58° Northeast 490 564 43,000  Level FlightAware Transoceanic
Thu 05:47:00 PM 25.8272 -149.8223 58° Northeast 490 564 43,000  Level FlightAware Transoceanic
Thu 05:48:00 PM 25.8986 -149.6935 58° Northeast 490 564 43,000  Level FlightAware Transoceanic
Thu 05:49:00 PM 25.9699 -149.5646 58° Northeast 490 564 43,000  Level FlightAware Transoceanic
Thu 05:50:00 PM 26.0411 -149.4355 58° Northeast 490 564 43,000  Level FlightAware Transoceanic
Thu 05:51:00 PM 26.1122 -149.3063 59° Northeast 490 564 43,000  Level FlightAware Transoceanic
Thu 05:52:00 PM 26.1832 -149.1769 59° Northeast 490 564 43,000  Level FlightAware Transoceanic
Thu 05:53:00 PM 26.2540 -149.0473 59° Northeast 490 564 43,000  Level FlightAware Transoceanic
Thu 05:54:00 PM 26.3247 -148.9176 59° Northeast 490 564 43,000  Level FlightAware Transoceanic
Thu 05:55:00 PM 26.3953 -148.7877 59° Northeast 490 564 43,000  Level FlightAware Transoceanic
Thu 05:56:00 PM 26.4658 -148.6577 59° Northeast 490 564 43,000  Level FlightAware Transoceanic
Thu 05:57:00 PM 26.5362 -148.5275 59° Northeast 490 564 43,000  Level FlightAware Transoceanic
Thu 05:58:00 PM 26.6064 -148.3971 59° Northeast 490 564 43,000  Level FlightAware Transoceanic
Thu 05:59:00 PM 26.6766 -148.2666 59° Northeast 490 564 43,000  Level FlightAware Transoceanic
Thu 06:00:00 PM 26.7466 -148.1359 59° Northeast 490 564 43,000  Level FlightAware Transoceanic
Thu 06:01:00 PM 26.8165 -148.0051 59° Northeast 490 564 43,000  Level FlightAware Transoceanic
Thu 06:02:00 PM 26.8863 -147.8741 59° Northeast 490 564 43,000  Level FlightAware Transoceanic
Thu 06:03:00 PM 26.9559 -147.7429 59° Northeast 490 564 43,000  Level FlightAware Transoceanic
Thu 06:04:00 PM 27.0255 -147.6116 59° Northeast 490 564 43,000  Level FlightAware Transoceanic
Thu 06:05:00 PM 27.0949 -147.4801 59° Northeast 490 564 43,000  Level FlightAware Transoceanic
Thu 06:06:00 PM 27.1642 -147.3485 59° Northeast 490 564 43,000  Level FlightAware Transoceanic
Thu 06:07:00 PM 27.2333 -147.2167 64° Northeast 490 564 43,000  Level FlightAware Transoceanic
Thu 06:08:00 PM 27.2921 -147.0807 64° Northeast 490 564 43,000  Level FlightAware Transoceanic
Thu 06:09:00 PM 27.3508 -146.9446 64° Northeast 490 564 43,000  Level FlightAware Transoceanic
Thu 06:10:00 PM 27.4093 -146.8084 64° Northeast 490 564 43,000  Level FlightAware Transoceanic
Thu 06:11:00 PM 27.4677 -146.6720 64° Northeast 490 564 43,000  Level FlightAware Transoceanic
Thu 06:11:26 PM 27.2333 -147.2167 64° Northeast 505 581 43,000  Level Oakland Oceanic (ODAPS)
Thu 06:12:00 PM 27.5259 -146.5355 64° Northeast 490 564 43,000  Level FlightAware Transoceanic
Thu 06:13:00 PM 27.5840 -146.3988 64° Northeast 490 564 43,000  Level FlightAware Transoceanic
Thu 06:14:00 PM 27.6420 -146.2620 64° Northeast 490 564 43,000  Level FlightAware Transoceanic
Thu 06:15:00 PM 27.6999 -146.1251 65° Northeast 490 564 43,000  Level FlightAware Transoceanic
Thu 06:16:00 PM 27.7576 -145.9880 65° Northeast 490 564 43,000  Level FlightAware Transoceanic
Thu 06:17:00 PM 27.8396 -145.7923 65° Northeast 505 581 43,000  Level FlightAware Transoceanic
Thu 06:18:00 PM 27.8994 -145.6490 65° Northeast 505 581 43,000  Level FlightAware Transoceanic
Thu 06:19:00 PM 27.9591 -145.5055 65° Northeast 505 581 43,000  Level FlightAware Transoceanic
Thu 06:20:00 PM 28.0186 -145.3619 65° Northeast 505 581 43,000  Level FlightAware Transoceanic
Thu 06:21:00 PM 28.0780 -145.2181 65° Northeast 505 581 43,000  Level FlightAware Transoceanic
Thu 06:22:00 PM 28.1372 -145.0741 65° Northeast 505 581 43,000  Level FlightAware Transoceanic
Thu 06:23:00 PM 28.1963 -144.9300 65° Northeast 505 581 43,000  Level FlightAware Transoceanic
Thu 06:24:00 PM 28.2552 -144.7858 65° Northeast 505 581 43,000  Level FlightAware Transoceanic
Thu 06:25:00 PM 28.3140 -144.6414 65° Northeast 505 581 43,000  Level FlightAware Transoceanic
Thu 06:26:00 PM 28.3726 -144.4968 65° Northeast 505 581 43,000  Level FlightAware Transoceanic
Thu 06:27:00 PM 28.4311 -144.3521 65° Northeast 505 581 43,000  Level FlightAware Transoceanic
Thu 06:28:00 PM 28.4894 -144.2072 65° Northeast 505 581 43,000  Level FlightAware Transoceanic
Thu 06:29:00 PM 28.5476 -144.0621 66° East 505 581 43,000  Level FlightAware Transoceanic
Thu 06:30:00 PM 28.6056 -143.9169 66° East 505 581 43,000  Level FlightAware Transoceanic
Thu 06:31:00 PM 28.6634 -143.7715 66° East 505 581 43,000  Level FlightAware Transoceanic
Thu 06:32:00 PM 28.7211 -143.6260 66° East 505 581 43,000  Level FlightAware Transoceanic
Thu 06:33:00 PM 28.7787 -143.4803 66° East 505 581 43,000  Level FlightAware Transoceanic
Thu 06:34:00 PM 28.8360 -143.3344 66° East 505 581 43,000  Level FlightAware Transoceanic
Thu 06:35:00 PM 28.8933 -143.1884 66° East 505 581 43,000  Level FlightAware Transoceanic
Thu 06:36:00 PM 28.9503 -143.0422 66° East 505 581 43,000  Level FlightAware Transoceanic
Thu 06:37:00 PM 29.0072 -142.8959 66° East 505 581 43,000  Level FlightAware Transoceanic
Thu 06:38:00 PM 29.0640 -142.7494 66° East 505 581 43,000  Level FlightAware Transoceanic
Thu 06:39:00 PM 29.1206 -142.6027 66° East 505 581 43,000  Level FlightAware Transoceanic
Thu 06:40:00 PM 29.1770 -142.4559 66° East 505 581 43,000  Level FlightAware Transoceanic
Thu 06:41:00 PM 29.2333 -142.3089 66° East 505 581 43,000  Level FlightAware Transoceanic
Thu 06:42:00 PM 29.2894 -142.1617 66° East 505 581 43,000  Level FlightAware Transoceanic
Thu 06:43:00 PM 29.3454 -142.0144 66° East 505 581 43,000  Level FlightAware Transoceanic
Thu 06:44:00 PM 29.4011 -141.8669 67° East 505 581 43,000  Level FlightAware Transoceanic
Thu 06:45:00 PM 29.4568 -141.7193 67° East 505 581 43,000  Level FlightAware Transoceanic
Thu 06:46:00 PM 29.5122 -141.5715 67° East 505 581 43,000  Level FlightAware Transoceanic
Thu 06:47:00 PM 29.5675 -141.4236 67° East 505 581 43,000  Level FlightAware Transoceanic
Thu 06:48:00 PM 29.6227 -141.2755 67° East 505 581 43,000  Level FlightAware Transoceanic
Thu 06:49:00 PM 29.6776 -141.1272 67° East 505 581 43,000  Level FlightAware Transoceanic
Thu 06:50:00 PM 29.7324 -140.9787 67° East 505 581 43,000  Level FlightAware Transoceanic
Thu 06:51:00 PM 29.7871 -140.8301 67° East 505 581 43,000  Level FlightAware Transoceanic
Thu 06:52:00 PM 29.8416 -140.6814 67° East 505 581 43,000  Level FlightAware Transoceanic
Thu 06:53:00 PM 29.8959 -140.5324 67° East 505 581 43,000  Level FlightAware Transoceanic
Thu 06:54:00 PM 29.9500 -140.3833 69° East 505 581 43,000  Level FlightAware Transoceanic
Thu 06:55:00 PM 29.9958 -140.2442 69° East 505 581 43,000  Level FlightAware Transoceanic
Thu 06:56:00 PM 30.0415 -140.1049 69° East 505 581 43,000  Level FlightAware Transoceanic
Thu 06:57:00 PM 30.0870 -139.9655 69° East 505 581 43,000  Level FlightAware Transoceanic
Thu 06:58:00 PM 30.1324 -139.8259 69° East 505 581 43,000 1,558 Level FlightAware Transoceanic
Thu 06:58:17 PM 29.9500 -140.3833 69° East 474 545 45,000  Climbing Oakland Oceanic (ODAPS)
Thu 06:59:00 PM 30.1776 -139.6862 70° East 505 581 43,000 -1,165 Descending FlightAware Transoceanic
Thu 07:00:00 PM 30.2227 -139.5464 70° East 505 581 43,000  Level FlightAware Transoceanic
Thu 07:01:00 PM 30.2676 -139.4065 70° East 505 581 43,000  Level FlightAware Transoceanic
Thu 07:02:00 PM 30.3123 -139.2664 70° East 505 581 43,000  Level FlightAware Transoceanic
Thu 07:03:00 PM 30.3570 -139.1263 70° East 505 581 43,000 1,000 Level FlightAware Transoceanic
Thu 07:04:00 PM 30.3192 -139.2449 70° East 474 545 45,000 1,000 Climbing FlightAware Transoceanic
Thu 07:05:00 PM 30.3647 -139.1020 70° East 474 545 45,000  Level FlightAware Transoceanic
Thu 07:06:00 PM 30.4100 -138.9589 70° East 474 545 45,000  Level FlightAware Transoceanic
Thu 07:07:00 PM 30.4551 -138.8158 70° East 474 545 45,000  Level FlightAware Transoceanic
Thu 07:08:00 PM 30.5001 -138.6725 70° East 474 545 45,000  Level FlightAware Transoceanic
Thu 07:09:00 PM 30.5450 -138.5290 70° East 474 545 45,000  Level FlightAware Transoceanic
Thu 07:10:00 PM 30.5896 -138.3855 70° East 474 545 45,000  Level FlightAware Transoceanic
Thu 07:11:00 PM 30.6342 -138.2418 70° East 474 545 45,000  Level FlightAware Transoceanic
Thu 07:12:00 PM 30.6785 -138.0979 70° East 474 545 45,000  Level FlightAware Transoceanic
Thu 07:13:00 PM 30.7227 -137.9540 70° East 474 545 45,000  Level FlightAware Transoceanic
Thu 07:14:00 PM 30.7668 -137.8099 70° East 474 545 45,000  Level FlightAware Transoceanic
Thu 07:15:00 PM 30.8107 -137.6656 71° East 474 545 45,000  Level FlightAware Transoceanic
Thu 07:16:00 PM 30.8544 -137.5213 71° East 474 545 45,000  Level FlightAware Transoceanic
Thu 07:17:00 PM 30.8979 -137.3768 71° East 474 545 45,000  Level FlightAware Transoceanic
Thu 07:18:00 PM 30.9414 -137.2322 71° East 474 545 45,000  Level FlightAware Transoceanic
Thu 07:19:00 PM 30.9846 -137.0874 71° East 474 545 45,000  Level FlightAware Transoceanic
Thu 07:20:00 PM 31.0277 -136.9425 71° East 474 545 45,000  Level FlightAware Transoceanic
Thu 07:21:00 PM 31.0706 -136.7975 71° East 474 545 45,000  Level FlightAware Transoceanic
Thu 07:22:00 PM 31.1133 -136.6524 71° East 474 545 45,000  Level FlightAware Transoceanic
Thu 07:23:00 PM 31.1560 -136.5071 71° East 474 545 45,000  Level FlightAware Transoceanic
Thu 07:24:00 PM 31.1984 -136.3617 71° East 474 545 45,000  Level FlightAware Transoceanic
Thu 07:25:00 PM 31.2407 -136.2162 71° East 474 545 45,000  Level FlightAware Transoceanic
Thu 07:26:00 PM 31.2827 -136.0705 71° East 474 545 45,000  Level FlightAware Transoceanic
Thu 07:27:00 PM 31.3247 -135.9247 71° East 474 545 45,000  Level FlightAware Transoceanic
Thu 07:28:00 PM 31.3665 -135.7788 72° East 474 545 45,000  Level FlightAware Transoceanic
Thu 07:29:00 PM 31.4081 -135.6327 72° East 474 545 45,000  Level FlightAware Transoceanic
Thu 07:30:00 PM 31.4495 -135.4865 72° East 474 545 45,000  Level FlightAware Transoceanic
Thu 07:31:00 PM 31.4908 -135.3402 72° East 474 545 45,000  Level FlightAware Transoceanic
Thu 07:32:00 PM 31.5319 -135.1938 72° East 474 545 45,000  Level FlightAware Transoceanic
Thu 07:33:00 PM 31.5728 -135.0472 72° East 474 545 45,000  Level FlightAware Transoceanic
Thu 07:34:00 PM 31.6136 -134.9005 72° East 474 545 45,000  Level FlightAware Transoceanic
Thu 07:35:00 PM 31.6542 -134.7537 72° East 474 545 45,000  Level FlightAware Transoceanic
Thu 07:36:00 PM 31.6947 -134.6067 72° East 474 545 45,000  Level FlightAware Transoceanic
Thu 07:37:00 PM 31.7349 -134.4596 72° East 474 545 45,000  Level FlightAware Transoceanic
Thu 07:38:00 PM 31.7750 -134.3124 72° East 474 545 45,000  Level FlightAware Transoceanic
Thu 07:39:00 PM 31.8150 -134.1651 72° East 474 545 45,000  Level FlightAware Transoceanic
Thu 07:40:00 PM 31.8547 -134.0176 72° East 474 545 45,000  Level FlightAware Transoceanic
Thu 07:41:00 PM 31.8943 -133.8700 73° East 474 545 45,000  Level FlightAware Transoceanic
Thu 07:42:00 PM 31.9338 -133.7223 73° East 474 545 45,000  Level FlightAware Transoceanic
Thu 07:43:00 PM 31.9730 -133.5745 73° East 474 545 45,000  Level FlightAware Transoceanic
Thu 07:44:00 PM 32.0121 -133.4265 73° East 474 545 45,000  Level FlightAware Transoceanic
Thu 07:45:00 PM 32.0510 -133.2784 73° East 474 545 45,000  Level FlightAware Transoceanic
Thu 07:46:00 PM 32.0897 -133.1302 73° East 474 545 45,000  Level FlightAware Transoceanic
Thu 07:47:00 PM 32.1283 -132.9818 73° East 474 545 45,000  Level FlightAware Transoceanic
Thu 07:48:00 PM 32.1667 -132.8333 73° East 474 545 45,000  Level FlightAware Transoceanic
Thu 07:49:00 PM 32.2042 -132.6873 73° East 474 545 45,000  Level FlightAware Transoceanic
Thu 07:50:00 PM 32.2416 -132.5411 73° East 474 545 45,000  Level FlightAware Transoceanic
Thu 07:50:54 PM 32.1667 -132.8333 73° East 474 545 45,000  Level Oakland Oceanic (ODAPS)
Thu 07:51:00 PM 32.2788 -132.3948 73° East 474 545 45,000  Level FlightAware Transoceanic
Thu 07:52:00 PM 32.3159 -132.2483 73° East 474 545 45,000  Level FlightAware Transoceanic
Thu 07:53:00 PM 32.3527 -132.1018 73° East 474 545 45,000  Level FlightAware Transoceanic
Thu 07:54:00 PM 32.3895 -131.9551 74° East 474 545 45,000  Level FlightAware Transoceanic
Thu 07:55:00 PM 32.4260 -131.8083 74° East 474 545 45,000  Level FlightAware Transoceanic
Thu 07:56:00 PM 32.4624 -131.6614 74° East 474 545 45,000  Level FlightAware Transoceanic
Thu 07:57:00 PM 32.5048 -131.4889 74° East 474 545 45,000  Level FlightAware Transoceanic
Thu 07:58:00 PM 32.5415 -131.3389 74° East 474 545 45,000  Level FlightAware Transoceanic
Thu 07:59:00 PM 32.5780 -131.1888 74° East 474 545 45,000  Level FlightAware Transoceanic
Thu 08:00:00 PM 32.6143 -131.0386 74° East 474 545 45,000  Level FlightAware Transoceanic
Thu 08:01:00 PM 32.6505 -130.8882 74° East 474 545 45,000  Level FlightAware Transoceanic
Thu 08:02:00 PM 32.6865 -130.7377 74° East 474 545 45,000  Level FlightAware Transoceanic
Thu 08:03:00 PM 32.7222 -130.5871 74° East 474 545 45,000  Level FlightAware Transoceanic
Thu 08:04:00 PM 32.7579 -130.4364 74° East 474 545 45,000  Level FlightAware Transoceanic
Thu 08:05:00 PM 32.7933 -130.2856 74° East 474 545 45,000  Level FlightAware Transoceanic
Thu 08:06:00 PM 32.8285 -130.1346 75° East 474 545 45,000  Level FlightAware Transoceanic
Thu 08:07:00 PM 32.8636 -129.9835 75° East 474 545 45,000  Level FlightAware Transoceanic
Thu 08:08:00 PM 32.8985 -129.8323 75° East 474 545 45,000  Level FlightAware Transoceanic
Thu 08:09:00 PM 32.9332 -129.6810 75° East 474 545 45,000  Level FlightAware Transoceanic
Thu 08:10:00 PM 32.9677 -129.5296 75° East 474 545 45,000  Level FlightAware Transoceanic
Thu 08:11:00 PM 33.0021 -129.3780 75° East 474 545 45,000  Level FlightAware Transoceanic
Thu 08:12:00 PM 33.0362 -129.2263 75° East 474 545 45,000  Level FlightAware Transoceanic
Thu 08:13:00 PM 33.0702 -129.0745 75° East 474 545 45,000  Level FlightAware Transoceanic
Thu 08:14:00 PM 33.1040 -128.9226 75° East 474 545 45,000  Level FlightAware Transoceanic
Thu 08:15:00 PM 33.1376 -128.7706 75° East 474 545 45,000  Level FlightAware Transoceanic
Thu 08:16:00 PM 33.1710 -128.6185 75° East 474 545 45,000  Level FlightAware Transoceanic
Thu 08:17:00 PM 33.2042 -128.4662 75° East 474 545 45,000  Level FlightAware Transoceanic
Thu 08:18:00 PM 33.2373 -128.3138 76° East 474 545 45,000  Level FlightAware Transoceanic
Thu 08:19:00 PM 33.2701 -128.1613 76° East 474 545 45,000  Level FlightAware Transoceanic
Thu 08:20:00 PM 33.3028 -128.0087 76° East 474 545 45,000  Level FlightAware Transoceanic
Thu 08:21:00 PM 33.3353 -127.8560 76° East 474 545 45,000  Level FlightAware Transoceanic
Thu 08:22:00 PM 33.3676 -127.7032 76° East 474 545 45,000  Level FlightAware Transoceanic
Thu 08:23:00 PM 33.3997 -127.5502 76° East 474 545 45,000  Level FlightAware Transoceanic
Thu 08:24:00 PM 33.4316 -127.3972 76° East 474 545 45,000  Level FlightAware Transoceanic
Thu 08:25:00 PM 33.4634 -127.2440 76° East 474 545 45,000  Level FlightAware Transoceanic
Thu 08:26:00 PM 33.4949 -127.0908 76° East 474 545 45,000  Level FlightAware Transoceanic
Thu 08:27:00 PM 33.5263 -126.9374 76° East 474 545 45,000  Level FlightAware Transoceanic
Thu 08:28:00 PM 33.5575 -126.7839 76° East 474 545 45,000  Level FlightAware Transoceanic
Thu 08:29:00 PM 33.5885 -126.6302 76° East 474 545 45,000  Level FlightAware Transoceanic
Thu 08:30:00 PM 33.6193 -126.4765 77° East 474 545 45,000  Level FlightAware Transoceanic
Thu 08:31:00 PM 33.6499 -126.3227 77° East 474 545 45,000  Level FlightAware Transoceanic
Thu 08:32:00 PM 33.6803 -126.1687 77° East 474 545 45,000  Level FlightAware Transoceanic
Thu 08:33:00 PM 33.7105 -126.0147 77° East 474 545 45,000  Level FlightAware Transoceanic
Thu 08:34:00 PM 33.7405 -125.8605 77° East 474 545 45,000  Level FlightAware Transoceanic
Thu 08:35:00 PM 33.7704 -125.7063 77° East 474 545 45,000  Level FlightAware Transoceanic
Thu 08:36:00 PM 33.8000 -125.5519 77° East 474 545 45,000  Level FlightAware Transoceanic
Thu 08:37:00 PM 33.8295 -125.3974 77° East 474 545 45,000  Level FlightAware Transoceanic
Thu 08:38:00 PM 33.8587 -125.2428 77° East 474 545 45,000  Level FlightAware Transoceanic
Thu 08:39:00 PM 33.8878 -125.0881 77° East 474 545 45,000  Level FlightAware Transoceanic
Thu 08:40:00 PM 33.9167 -124.9333 77° East 474 545 45,000  Level FlightAware Transoceanic
Thu 08:41:00 PM 33.9455 -124.7797 77° East 474 545 45,000  Level FlightAware Transoceanic
Thu 08:42:00 PM 33.9741 -124.6260 77° East 474 545 45,000  Level FlightAware Transoceanic
Thu 08:43:00 PM 34.0026 -124.4722 77° East 474 545 45,000  Level FlightAware Transoceanic
Thu 08:43:20 PM 33.9517 -124.6900 78° East 478 550 45,000  Level Los Angeles Center
Thu 08:44:00 PM 34.0308 -124.3183 78° East 474 545 45,000  Level FlightAware Transoceanic
Thu 08:44:22 PM 33.9778 -124.5339 79° East 476 548 45,000  Level Los Angeles Center
Thu 08:45:00 PM 34.0589 -124.1643 78° East 474 545 45,000  Level FlightAware Transoceanic
Thu 08:45:24 PM 34.0086 -124.3789 76° East 477 549 45,000  Level Los Angeles Center
Thu 08:46:00 PM 34.0868 -124.0101 78° East 474 545 45,000 -97 Level FlightAware Transoceanic
Thu 08:46:26 PM 34.0314 -124.2222 80° East 475 547 44,900  Descending Los Angeles Center
Thu 08:47:00 PM 34.1145 -123.8559 78° East 474 545 45,000 97 Climbing FlightAware Transoceanic
Thu 08:47:28 PM 34.0461 -124.0339 85° East 470 541 45,000  Level Los Angeles Center
Thu 08:48:00 PM 34.1420 -123.7016 78° East 474 545 45,000  Level FlightAware Transoceanic
Thu 08:48:30 PM 34.0558 -123.8767 86° East 472 543 45,000  Level Los Angeles Center
Thu 08:49:32 PM 34.0661 -123.7186 85° East 472 543 45,000  Level Los Angeles Center
Thu 08:50:46 PM 34.0767 -123.5611 85° East 473 544 45,000  Level Los Angeles Center
Thu 08:51:49 PM 34.0872 -123.3722 86° East 471 542 45,000  Level Los Angeles Center
Thu 08:52:51 PM 34.0989 -123.2144 85° East 473 544 45,000  Level Los Angeles Center
Thu 08:53:53 PM 34.1100 -123.0250 86° East 473 544 45,000  Level Los Angeles Center
Thu 08:54:55 PM 34.1194 -122.8689 86° East 471 542 45,000  Level Los Angeles Center
Thu 08:55:57 PM 34.1281 -122.7111 86° East 471 542 45,000  Level Los Angeles Center
Thu 08:56:59 PM 34.1394 -122.5539 85° East 472 543 45,000  Level Los Angeles Center
Thu 08:58:01 PM 34.1486 -122.3958 86° East 473 544 45,000  Level Los Angeles Center
Thu 08:59:03 PM 34.1608 -122.2392 85° East 468 539 45,000  Level Los Angeles Center
Thu 09:00:05 PM 34.1689 -122.0486 87° East 475 547 45,000  Level Los Angeles Center
Thu 09:01:08 PM 34.1783 -121.8908 86° East 472 543 45,000  Level Los Angeles Center
Thu 09:02:10 PM 34.1856 -121.7322 87° East 475 547 45,000  Level Los Angeles Center
Thu 09:03:12 PM 34.1939 -121.5750 86° East 472 543 45,000  Level Los Angeles Center
Thu 09:04:14 PM 34.2017 -121.4175 87° East 472 543 45,000  Level Los Angeles Center
Thu 09:05:16 PM 34.2094 -121.2281 87° East 474 545 45,000  Level Los Angeles Center
Thu 09:06:18 PM 34.2164 -121.0714 87° East 472 543 45,000  Level Los Angeles Center
Thu 09:07:20 PM 34.2228 -120.9139 87° East 472 543 45,000  Level Los Angeles Center
Thu 09:08:22 PM 34.2294 -120.7567 87° East 474 545 45,000  Level Los Angeles Center
Thu 09:09:24 PM 34.2347 -120.6000 88° East 475 547 45,000  Level Los Angeles Center
Thu 09:10:26 PM 34.2436 -120.4122 87° East 474 545 45,000  Level Los Angeles Center
Thu 09:11:29 PM 34.2525 -120.2569 86° East 474 545 45,000  Level Los Angeles Center
Thu 09:12:31 PM 34.2642 -120.1003 85° East 471 542 45,000  Level Los Angeles Center
Thu 09:13:32 PM 34.2925 -119.9756 75° East 476 548 45,000  Level Los Angeles Center
Thu 09:14:35 PM 34.3372 -119.7594 76° East 475 547 45,000  Level Los Angeles Center
Thu 09:15:37 PM 34.3694 -119.6031 76° East 479 551 45,000  Level Los Angeles Center
Thu 09:16:39 PM 34.4019 -119.4472 76° East 478 550 45,000  Level Los Angeles Center
Thu 09:17:41 PM 34.4347 -119.2917 76° East 477 549 45,000  Level Los Angeles Center
Thu 09:18:43 PM 34.4661 -119.1364 76° East 474 545 45,000  Level Los Angeles Center
Thu 09:19:45 PM 34.4986 -118.9800 76° East 477 549 45,000  Level Los Angeles Center
Thu 09:20:47 PM 34.5314 -118.8228 76° East 479 551 45,000 -194 Level Los Angeles Center
Thu 09:21:49 PM 34.5692 -118.6364 76° East 474 545 44,600 -919 Descending Los Angeles Center
Thu 09:22:51 PM 34.5992 -118.4808 77° East 473 544 43,100 -1,452 Descending Los Angeles Center
Thu 09:23:53 PM 34.6308 -118.3264 76° East 471 542 41,600 -1,403 Descending Los Angeles Center
Thu 09:24:55 PM 34.6583 -118.1842 77° East 473 544 40,200 -1,548 Descending Los Angeles Center
Thu 09:25:57 PM 34.6944 -117.9944 77° East 483 556 38,400 -1,548 Descending Los Angeles Center
Thu 09:26:59 PM 34.7247 -117.8361 77° East 485 558 37,000 -677 Descending Los Angeles Center
Thu 09:28:01 PM 34.7553 -117.6769 77° East 488 562 37,000  Level Los Angeles Center
Thu 09:29:03 PM 34.7800 -117.5497 77° East 489 563 37,000 -871 Level Los Angeles Center
Thu 09:30:05 PM 34.8206 -117.3278 77° East 490 564 35,200 -1,597 Descending Los Angeles Center
Thu 09:31:07 PM 34.8519 -117.1711 76° East 484 557 33,700 -1,452 Descending Los Angeles Center
Thu 09:32:09 PM 34.8814 -117.0133 77° East 484 557 32,200 -1,452 Descending Los Angeles Center
Thu 09:33:11 PM 34.9283 -116.8594 70° East 488 562 30,700 -1,452 Descending Los Angeles Center
Thu 09:34:13 PM 34.9856 -116.7108 65° Northeast 487 560 29,200 -1,016 Descending Los Angeles Center
Thu 09:35:15 PM 35.0522 -116.5358 65° Northeast 479 551 28,600 -529 Descending Los Angeles Center
Thu 09:36:29 PM 35.1081 -116.3942 64° Northeast 468 539 28,000 -1,314 Descending Los Angeles Center
Thu 09:37:32 PM 35.2167 -116.2600 45° Northeast 461 531 25,600 -2,256 Descending Los Angeles Center
Thu 09:38:34 PM 35.3011 -116.1525 46° Northeast 445 512 23,300 -2,177 Descending Los Angeles Center
Thu 09:39:36 PM 35.3819 -116.0506 46° Northeast 423 487 21,100 -2,343 Descending Los Angeles Center
Thu 09:40:19 PM 35.4511 -115.9656 45° Northeast 418 481 19,200 -2,327 Descending Los Angeles Center
Thu 09:41:14 PM 35.5214 -115.8800 45° Northeast 397 457 17,300 -1,983 Descending Los Angeles Center
Thu 09:42:14 PM 35.5903 -115.7894 47° Northeast 369 425 15,400 -1,826 Descending Los Angeles Center
Thu 09:43:09 PM 35.6500 -115.7150 45° Northeast 337 388 13,800 -1,582 Descending Los Angeles Center
Thu 09:43:45 PM 35.6717 -115.6622 63° Northeast 316 364 13,000 -490 Descending Los Angeles Center
Thu 09:44:47 PM 35.7056 -115.5800 63° Northeast 278 320 13,000 -306 Level Los Angeles Center
Thu 09:45:23 PM 35.7278 -115.5339 59° Northeast 253 291 12,500 -874 Descending Los Angeles Center
Thu 09:46:30 PM 35.7611 -115.4489 64° Northeast 256 295 11,500 -992 Descending Los Angeles Center
Thu 09:47:30 PM 35.8225 -115.4025 31° Northeast 254 292 10,400 -1,140 Descending Los Angeles Center
Thu 09:48:31 PM 35.8869 -115.3711 22° Northeast 248 285 9,200 -836 Descending Los Angeles Center
Thu 09:49:32 PM 35.9467 -115.3489 17° North 207 238 8,700 -818 Descending Los Angeles Center
Thu 09:50:21 PM 35.9892 -115.3350 15° North 195 224 7,700 -1,448 Descending Los Angeles Center
Thu 09:50:59 PM 36.0183 -115.3214 21° North 208 239 6,600 -1,125 Descending Los Angeles Center
Thu 09:52:13 PM 36.0656 -115.3053 15° North 202 232 5,600 -1,401 Descending Los Angeles Center
Thu 09:53:16 PM 36.0739 -115.2314 82° East 176 203 3,400 -1,536 Descending Los Angeles Center
Thu 09:54:18 PM 36.0739 -115.1711 90° East 147 169 2,400 -629 Descending Los Angeles Center
Thu 09:55:20 PM 36.0747 -115.1392 88° East 134 154 2,100 -290 Descending Los Angeles Center

Login

Don't have an account? Register now (free) for customized features, flight alerts, and more!